sensor_id;sensor_type;location;lat;lon;timestamp;P1;durP1;ratioP1;P2;durP2;ratioP2
66012;SDS011;52783;50.502;8.190;2024-03-22T00:02:21;32.78;;;20.00;;
66012;SDS011;52783;50.502;8.190;2024-03-22T00:04:47;38.40;;;21.65;;
66012;SDS011;52783;50.502;8.190;2024-03-22T00:07:12;36.70;;;20.98;;
66012;SDS011;52783;50.502;8.190;2024-03-22T00:09:38;43.55;;;23.30;;
66012;SDS011;52783;50.502;8.190;2024-03-22T00:12:03;34.78;;;22.02;;
66012;SDS011;52783;50.502;8.190;2024-03-22T00:14:29;40.60;;;22.33;;
66012;SDS011;52783;50.502;8.190;2024-03-22T00:16:55;44.75;;;22.40;;
66012;SDS011;52783;50.502;8.190;2024-03-22T00:19:20;39.65;;;22.08;;
66012;SDS011;52783;50.502;8.190;2024-03-22T00:21:46;39.47;;;21.00;;
66012;SDS011;52783;50.502;8.190;2024-03-22T00:24:14;41.67;;;20.92;;
66012;SDS011;52783;50.502;8.190;2024-03-22T00:26:39;38.25;;;20.95;;
66012;SDS011;52783;50.502;8.190;2024-03-22T00:29:05;37.63;;;21.15;;
66012;SDS011;52783;50.502;8.190;2024-03-22T00:31:31;35.70;;;21.50;;
66012;SDS011;52783;50.502;8.190;2024-03-22T00:33:56;35.05;;;20.60;;
66012;SDS011;52783;50.502;8.190;2024-03-22T00:36:22;38.90;;;22.10;;
66012;SDS011;52783;50.502;8.190;2024-03-22T00:38:48;35.70;;;21.17;;
66012;SDS011;52783;50.502;8.190;2024-03-22T00:41:13;38.05;;;21.63;;
66012;SDS011;52783;50.502;8.190;2024-03-22T00:43:39;35.50;;;19.67;;
66012;SDS011;52783;50.502;8.190;2024-03-22T00:46:05;37.90;;;21.75;;
66012;SDS011;52783;50.502;8.190;2024-03-22T00:48:30;36.20;;;20.42;;
66012;SDS011;52783;50.502;8.190;2024-03-22T00:50:56;35.00;;;20.33;;
66012;SDS011;52783;50.502;8.190;2024-03-22T00:53:21;35.83;;;20.65;;
66012;SDS011;52783;50.502;8.190;2024-03-22T00:55:47;35.95;;;21.75;;
66012;SDS011;52783;50.502;8.190;2024-03-22T00:58:16;34.20;;;20.17;;
66012;SDS011;52783;50.502;8.190;2024-03-22T01:00:45;40.58;;;22.17;;
66012;SDS011;52783;50.502;8.190;2024-03-22T01:03:11;40.35;;;21.58;;
66012;SDS011;52783;50.502;8.190;2024-03-22T01:05:37;37.95;;;22.48;;
66012;SDS011;52783;50.502;8.190;2024-03-22T01:08:02;36.58;;;21.50;;
66012;SDS011;52783;50.502;8.190;2024-03-22T01:10:28;37.22;;;20.90;;
66012;SDS011;52783;50.502;8.190;2024-03-22T01:12:53;35.10;;;22.30;;
66012;SDS011;52783;50.502;8.190;2024-03-22T01:15:19;42.08;;;23.25;;
66012;SDS011;52783;50.502;8.190;2024-03-22T01:17:44;37.08;;;20.20;;
66012;SDS011;52783;50.502;8.190;2024-03-22T01:20:10;42.60;;;21.92;;
66012;SDS011;52783;50.502;8.190;2024-03-22T01:22:36;39.88;;;21.77;;
66012;SDS011;52783;50.502;8.190;2024-03-22T01:25:02;35.38;;;21.25;;
66012;SDS011;52783;50.502;8.190;2024-03-22T01:27:28;38.22;;;21.17;;
66012;SDS011;52783;50.502;8.190;2024-03-22T01:29:53;39.00;;;21.30;;
66012;SDS011;52783;50.502;8.190;2024-03-22T01:32:19;37.83;;;21.38;;
66012;SDS011;52783;50.502;8.190;2024-03-22T01:34:44;38.45;;;20.73;;
66012;SDS011;52783;50.502;8.190;2024-03-22T01:37:10;39.03;;;20.80;;
66012;SDS011;52783;50.502;8.190;2024-03-22T01:39:35;40.35;;;23.17;;
66012;SDS011;52783;50.502;8.190;2024-03-22T01:42:01;39.50;;;22.58;;
66012;SDS011;52783;50.502;8.190;2024-03-22T01:44:27;37.58;;;21.38;;
66012;SDS011;52783;50.502;8.190;2024-03-22T01:46:53;34.72;;;20.05;;
66012;SDS011;52783;50.502;8.190;2024-03-22T01:49:18;45.70;;;23.25;;
66012;SDS011;52783;50.502;8.190;2024-03-22T01:51:44;37.55;;;21.17;;
66012;SDS011;52783;50.502;8.190;2024-03-22T01:54:10;41.65;;;20.85;;
66012;SDS011;52783;50.502;8.190;2024-03-22T01:56:36;38.42;;;22.33;;
66012;SDS011;52783;50.502;8.190;2024-03-22T01:59:04;38.00;;;22.23;;
66012;SDS011;52783;50.502;8.190;2024-03-22T02:01:30;38.38;;;21.60;;
66012;SDS011;52783;50.502;8.190;2024-03-22T02:03:56;44.22;;;23.30;;
66012;SDS011;52783;50.502;8.190;2024-03-22T02:06:21;45.08;;;22.50;;
66012;SDS011;52783;50.502;8.190;2024-03-22T02:08:47;41.20;;;22.42;;
66012;SDS011;52783;50.502;8.190;2024-03-22T02:11:13;38.15;;;21.25;;
66012;SDS011;52783;50.502;8.190;2024-03-22T02:13:38;36.70;;;21.13;;
66012;SDS011;52783;50.502;8.190;2024-03-22T02:16:04;46.75;;;22.48;;
66012;SDS011;52783;50.502;8.190;2024-03-22T02:18:30;37.78;;;21.15;;
66012;SDS011;52783;50.502;8.190;2024-03-22T02:20:58;40.03;;;21.98;;
66012;SDS011;52783;50.502;8.190;2024-03-22T02:23:39;37.10;;;20.98;;
66012;SDS011;52783;50.502;8.190;2024-03-22T02:26:06;37.70;;;20.70;;
66012;SDS011;52783;50.502;8.190;2024-03-22T02:28:33;42.75;;;21.38;;
66012;SDS011;52783;50.502;8.190;2024-03-22T02:31:00;40.00;;;20.70;;
66012;SDS011;52783;50.502;8.190;2024-03-22T02:33:27;37.33;;;20.00;;
66012;SDS011;52783;50.502;8.190;2024-03-22T02:35:52;44.38;;;22.80;;
66012;SDS011;52783;50.502;8.190;2024-03-22T02:38:18;38.13;;;21.23;;
66012;SDS011;52783;50.502;8.190;2024-03-22T02:40:44;40.22;;;21.35;;
66012;SDS011;52783;50.502;8.190;2024-03-22T02:43:11;40.42;;;22.25;;
66012;SDS011;52783;50.502;8.190;2024-03-22T02:45:36;41.60;;;21.27;;
66012;SDS011;52783;50.502;8.190;2024-03-22T02:48:02;39.95;;;22.90;;
66012;SDS011;52783;50.502;8.190;2024-03-22T02:50:28;41.03;;;21.65;;
66012;SDS011;52783;50.502;8.190;2024-03-22T02:52:59;39.75;;;21.42;;
66012;SDS011;52783;50.502;8.190;2024-03-22T02:55:25;41.08;;;21.60;;
66012;SDS011;52783;50.502;8.190;2024-03-22T02:57:51;45.75;;;22.02;;
66012;SDS011;52783;50.502;8.190;2024-03-22T03:00:16;40.00;;;22.40;;
66012;SDS011;52783;50.502;8.190;2024-03-22T03:02:43;46.55;;;21.70;;
66012;SDS011;52783;50.502;8.190;2024-03-22T03:05:09;39.58;;;21.52;;
66012;SDS011;52783;50.502;8.190;2024-03-22T03:07:35;48.35;;;23.55;;
66012;SDS011;52783;50.502;8.190;2024-03-22T03:10:00;40.03;;;22.20;;
66012;SDS011;52783;50.502;8.190;2024-03-22T03:12:26;38.60;;;21.42;;
66012;SDS011;52783;50.502;8.190;2024-03-22T03:14:51;39.20;;;20.95;;
66012;SDS011;52783;50.502;8.190;2024-03-22T03:17:17;40.80;;;21.95;;
66012;SDS011;52783;50.502;8.190;2024-03-22T03:19:42;37.90;;;21.98;;
66012;SDS011;52783;50.502;8.190;2024-03-22T03:22:09;38.80;;;21.70;;
66012;SDS011;52783;50.502;8.190;2024-03-22T03:24:34;45.33;;;22.75;;
66012;SDS011;52783;50.502;8.190;2024-03-22T03:27:00;41.35;;;22.50;;
66012;SDS011;52783;50.502;8.190;2024-03-22T03:29:25;45.55;;;23.23;;
66012;SDS011;52783;50.502;8.190;2024-03-22T03:31:51;44.47;;;22.27;;
66012;SDS011;52783;50.502;8.190;2024-03-22T03:34:16;46.28;;;24.10;;
66012;SDS011;52783;50.502;8.190;2024-03-22T03:36:42;45.55;;;23.85;;
66012;SDS011;52783;50.502;8.190;2024-03-22T03:39:07;41.47;;;21.10;;
66012;SDS011;52783;50.502;8.190;2024-03-22T03:41:33;48.35;;;23.05;;
66012;SDS011;52783;50.502;8.190;2024-03-22T03:43:59;44.88;;;22.65;;
66012;SDS011;52783;50.502;8.190;2024-03-22T03:46:24;40.88;;;22.40;;
66012;SDS011;52783;50.502;8.190;2024-03-22T03:48:50;46.83;;;23.85;;
66012;SDS011;52783;50.502;8.190;2024-03-22T03:51:15;48.95;;;25.33;;
66012;SDS011;52783;50.502;8.190;2024-03-22T03:53:41;47.60;;;24.17;;
66012;SDS011;52783;50.502;8.190;2024-03-22T03:56:06;49.92;;;24.05;;
66012;SDS011;52783;50.502;8.190;2024-03-22T03:58:32;42.83;;;23.23;;
66012;SDS011;52783;50.502;8.190;2024-03-22T04:00:57;45.13;;;23.65;;
66012;SDS011;52783;50.502;8.190;2024-03-22T04:03:23;38.53;;;22.58;;
66012;SDS011;52783;50.502;8.190;2024-03-22T04:05:58;46.38;;;21.95;;
66012;SDS011;52783;50.502;8.190;2024-03-22T04:08:24;52.33;;;22.52;;
66012;SDS011;52783;50.502;8.190;2024-03-22T04:10:54;42.97;;;22.45;;
66012;SDS011;52783;50.502;8.190;2024-03-22T04:13:21;42.47;;;22.90;;
66012;SDS011;52783;50.502;8.190;2024-03-22T04:15:47;42.88;;;23.85;;
66012;SDS011;52783;50.502;8.190;2024-03-22T04:18:13;48.00;;;23.77;;
66012;SDS011;52783;50.502;8.190;2024-03-22T04:20:38;43.47;;;22.85;;
66012;SDS011;52783;50.502;8.190;2024-03-22T04:23:04;47.70;;;24.10;;
66012;SDS011;52783;50.502;8.190;2024-03-22T04:25:29;49.40;;;23.58;;
66012;SDS011;52783;50.502;8.190;2024-03-22T04:27:55;49.25;;;24.33;;
66012;SDS011;52783;50.502;8.190;2024-03-22T04:30:20;44.75;;;22.23;;
66012;SDS011;52783;50.502;8.190;2024-03-22T04:32:46;45.72;;;22.80;;
66012;SDS011;52783;50.502;8.190;2024-03-22T04:35:12;41.13;;;22.55;;
66012;SDS011;52783;50.502;8.190;2024-03-22T04:37:37;47.88;;;24.00;;
66012;SDS011;52783;50.502;8.190;2024-03-22T04:40:03;48.92;;;23.35;;
66012;SDS011;52783;50.502;8.190;2024-03-22T04:42:29;48.25;;;23.73;;
66012;SDS011;52783;50.502;8.190;2024-03-22T04:44:55;47.08;;;23.92;;
66012;SDS011;52783;50.502;8.190;2024-03-22T04:47:20;48.38;;;23.58;;
66012;SDS011;52783;50.502;8.190;2024-03-22T04:49:46;43.65;;;23.70;;
66012;SDS011;52783;50.502;8.190;2024-03-22T04:52:11;44.70;;;23.38;;
66012;SDS011;52783;50.502;8.190;2024-03-22T04:54:37;41.17;;;23.00;;
66012;SDS011;52783;50.502;8.190;2024-03-22T04:57:03;46.25;;;23.67;;
66012;SDS011;52783;50.502;8.190;2024-03-22T04:59:28;44.35;;;23.95;;
66012;SDS011;52783;50.502;8.190;2024-03-22T05:01:54;48.45;;;24.02;;
66012;SDS011;52783;50.502;8.190;2024-03-22T05:04:19;45.47;;;21.95;;
66012;SDS011;52783;50.502;8.190;2024-03-22T05:06:45;39.92;;;21.80;;
66012;SDS011;52783;50.502;8.190;2024-03-22T05:09:10;49.38;;;23.48;;
66012;SDS011;52783;50.502;8.190;2024-03-22T05:11:36;45.70;;;23.65;;
66012;SDS011;52783;50.502;8.190;2024-03-22T05:14:01;44.83;;;23.48;;
66012;SDS011;52783;50.502;8.190;2024-03-22T05:16:27;50.83;;;23.65;;
66012;SDS011;52783;50.502;8.190;2024-03-22T05:18:53;51.08;;;24.40;;
66012;SDS011;52783;50.502;8.190;2024-03-22T05:21:18;48.92;;;24.17;;
66012;SDS011;52783;50.502;8.190;2024-03-22T05:23:44;45.72;;;22.80;;
66012;SDS011;52783;50.502;8.190;2024-03-22T05:26:09;45.50;;;24.05;;
66012;SDS011;52783;50.502;8.190;2024-03-22T05:28:35;49.53;;;23.10;;
66012;SDS011;52783;50.502;8.190;2024-03-22T05:31:00;46.55;;;23.60;;
66012;SDS011;52783;50.502;8.190;2024-03-22T05:33:26;51.65;;;23.67;;
66012;SDS011;52783;50.502;8.190;2024-03-22T05:35:52;48.25;;;22.73;;
66012;SDS011;52783;50.502;8.190;2024-03-22T05:38:17;39.45;;;21.67;;
66012;SDS011;52783;50.502;8.190;2024-03-22T05:40:43;46.65;;;23.80;;
66012;SDS011;52783;50.502;8.190;2024-03-22T05:43:11;45.13;;;22.75;;
66012;SDS011;52783;50.502;8.190;2024-03-22T05:45:37;48.63;;;21.88;;
66012;SDS011;52783;50.502;8.190;2024-03-22T05:48:03;48.67;;;23.33;;
66012;SDS011;52783;50.502;8.190;2024-03-22T05:50:29;46.35;;;23.38;;
66012;SDS011;52783;50.502;8.190;2024-03-22T05:52:54;43.80;;;24.55;;
66012;SDS011;52783;50.502;8.190;2024-03-22T05:55:20;45.95;;;21.50;;
66012;SDS011;52783;50.502;8.190;2024-03-22T05:57:45;41.85;;;22.02;;
66012;SDS011;52783;50.502;8.190;2024-03-22T06:00:11;50.03;;;23.13;;
66012;SDS011;52783;50.502;8.190;2024-03-22T06:02:38;53.38;;;23.92;;
66012;SDS011;52783;50.502;8.190;2024-03-22T06:05:04;47.00;;;22.55;;
66012;SDS011;52783;50.502;8.190;2024-03-22T06:07:30;49.30;;;24.15;;
66012;SDS011;52783;50.502;8.190;2024-03-22T06:10:00;51.10;;;24.58;;
66012;SDS011;52783;50.502;8.190;2024-03-22T06:12:26;44.42;;;22.50;;
66012;SDS011;52783;50.502;8.190;2024-03-22T06:14:51;44.13;;;21.52;;
66012;SDS011;52783;50.502;8.190;2024-03-22T06:17:17;41.00;;;21.70;;
66012;SDS011;52783;50.502;8.190;2024-03-22T06:19:42;42.55;;;21.67;;
66012;SDS011;52783;50.502;8.190;2024-03-22T06:22:08;43.33;;;21.85;;
66012;SDS011;52783;50.502;8.190;2024-03-22T06:24:33;39.63;;;21.75;;
66012;SDS011;52783;50.502;8.190;2024-03-22T06:26:59;42.22;;;21.20;;
66012;SDS011;52783;50.502;8.190;2024-03-22T06:29:25;39.53;;;21.27;;
66012;SDS011;52783;50.502;8.190;2024-03-22T06:31:50;42.42;;;21.55;;
66012;SDS011;52783;50.502;8.190;2024-03-22T06:34:17;37.92;;;21.10;;
66012;SDS011;52783;50.502;8.190;2024-03-22T06:36:43;38.58;;;20.48;;
66012;SDS011;52783;50.502;8.190;2024-03-22T06:39:08;42.40;;;21.65;;
66012;SDS011;52783;50.502;8.190;2024-03-22T06:41:35;36.90;;;20.10;;
66012;SDS011;52783;50.502;8.190;2024-03-22T06:44:00;38.33;;;20.27;;
66012;SDS011;52783;50.502;8.190;2024-03-22T06:46:26;46.83;;;20.38;;
66012;SDS011;52783;50.502;8.190;2024-03-22T06:48:52;40.70;;;21.42;;
66012;SDS011;52783;50.502;8.190;2024-03-22T06:51:18;49.10;;;20.90;;
66012;SDS011;52783;50.502;8.190;2024-03-22T06:53:43;37.60;;;20.02;;
66012;SDS011;52783;50.502;8.190;2024-03-22T06:56:10;40.85;;;18.70;;
66012;SDS011;52783;50.502;8.190;2024-03-22T06:58:36;33.47;;;18.45;;
66012;SDS011;52783;50.502;8.190;2024-03-22T07:01:03;34.67;;;18.52;;
66012;SDS011;52783;50.502;8.190;2024-03-22T07:03:29;35.67;;;17.00;;
66012;SDS011;52783;50.502;8.190;2024-03-22T07:05:55;31.63;;;16.63;;
66012;SDS011;52783;50.502;8.190;2024-03-22T07:08:20;29.73;;;15.90;;
66012;SDS011;52783;50.502;8.190;2024-03-22T07:10:46;32.63;;;15.85;;
66012;SDS011;52783;50.502;8.190;2024-03-22T07:13:11;32.03;;;16.05;;
66012;SDS011;52783;50.502;8.190;2024-03-22T07:15:37;32.50;;;17.58;;
66012;SDS011;52783;50.502;8.190;2024-03-22T07:18:02;32.97;;;17.30;;
66012;SDS011;52783;50.502;8.190;2024-03-22T07:20:28;31.70;;;16.85;;
66012;SDS011;52783;50.502;8.190;2024-03-22T07:22:55;35.25;;;16.30;;
66012;SDS011;52783;50.502;8.190;2024-03-22T07:25:21;33.28;;;16.30;;
66012;SDS011;52783;50.502;8.190;2024-03-22T07:27:46;31.58;;;16.17;;
66012;SDS011;52783;50.502;8.190;2024-03-22T07:30:14;48.13;;;16.23;;
66012;SDS011;52783;50.502;8.190;2024-03-22T07:32:39;30.73;;;15.98;;
66012;SDS011;52783;50.502;8.190;2024-03-22T07:35:05;30.10;;;15.52;;
66012;SDS011;52783;50.502;8.190;2024-03-22T07:37:32;30.23;;;15.73;;
66012;SDS011;52783;50.502;8.190;2024-03-22T07:39:59;28.65;;;15.57;;
66012;SDS011;52783;50.502;8.190;2024-03-22T07:42:24;30.33;;;15.23;;
66012;SDS011;52783;50.502;8.190;2024-03-22T07:44:50;23.42;;;13.93;;
66012;SDS011;52783;50.502;8.190;2024-03-22T07:47:15;25.25;;;13.40;;
66012;SDS011;52783;50.502;8.190;2024-03-22T07:49:41;32.30;;;14.20;;
66012;SDS011;52783;50.502;8.190;2024-03-22T07:52:06;22.05;;;13.23;;
66012;SDS011;52783;50.502;8.190;2024-03-22T07:54:32;23.10;;;13.55;;
66012;SDS011;52783;50.502;8.190;2024-03-22T07:56:57;23.30;;;13.02;;
66012;SDS011;52783;50.502;8.190;2024-03-22T07:59:23;21.50;;;12.18;;
66012;SDS011;52783;50.502;8.190;2024-03-22T08:01:48;24.13;;;13.65;;
66012;SDS011;52783;50.502;8.190;2024-03-22T08:04:14;28.00;;;13.57;;
66012;SDS011;52783;50.502;8.190;2024-03-22T08:06:39;27.60;;;13.77;;
66012;SDS011;52783;50.502;8.190;2024-03-22T08:09:05;21.30;;;12.50;;
66012;SDS011;52783;50.502;8.190;2024-03-22T08:11:30;20.48;;;12.15;;
66012;SDS011;52783;50.502;8.190;2024-03-22T08:13:56;22.67;;;12.45;;
66012;SDS011;52783;50.502;8.190;2024-03-22T08:16:27;21.13;;;10.75;;
66012;SDS011;52783;50.502;8.190;2024-03-22T08:18:53;17.80;;;11.10;;
66012;SDS011;52783;50.502;8.190;2024-03-22T08:21:18;21.45;;;11.27;;
66012;SDS011;52783;50.502;8.190;2024-03-22T08:23:44;22.40;;;11.35;;
66012;SDS011;52783;50.502;8.190;2024-03-22T08:26:10;18.45;;;10.52;;
66012;SDS011;52783;50.502;8.190;2024-03-22T08:28:35;19.08;;;11.07;;
66012;SDS011;52783;50.502;8.190;2024-03-22T08:31:04;17.15;;;9.88;;
66012;SDS011;52783;50.502;8.190;2024-03-22T08:33:30;19.40;;;10.13;;
66012;SDS011;52783;50.502;8.190;2024-03-22T08:35:55;13.63;;;9.00;;
66012;SDS011;52783;50.502;8.190;2024-03-22T08:38:21;13.38;;;8.80;;
66012;SDS011;52783;50.502;8.190;2024-03-22T08:40:47;15.52;;;9.70;;
66012;SDS011;52783;50.502;8.190;2024-03-22T08:43:13;16.52;;;9.85;;
66012;SDS011;52783;50.502;8.190;2024-03-22T08:45:38;16.90;;;10.23;;
66012;SDS011;52783;50.502;8.190;2024-03-22T08:48:04;16.90;;;8.85;;
66012;SDS011;52783;50.502;8.190;2024-03-22T08:50:30;17.40;;;9.13;;
66012;SDS011;52783;50.502;8.190;2024-03-22T08:52:55;18.85;;;8.77;;
66012;SDS011;52783;50.502;8.190;2024-03-22T08:55:21;21.40;;;9.00;;
66012;SDS011;52783;50.502;8.190;2024-03-22T08:57:47;13.07;;;7.60;;
66012;SDS011;52783;50.502;8.190;2024-03-22T09:00:12;14.10;;;8.15;;
66012;SDS011;52783;50.502;8.190;2024-03-22T09:02:38;13.57;;;8.23;;
66012;SDS011;52783;50.502;8.190;2024-03-22T09:05:06;12.25;;;7.75;;
66012;SDS011;52783;50.502;8.190;2024-03-22T09:07:33;18.10;;;8.98;;
66012;SDS011;52783;50.502;8.190;2024-03-22T09:09:59;19.23;;;9.25;;
66012;SDS011;52783;50.502;8.190;2024-03-22T09:12:24;19.42;;;9.00;;
66012;SDS011;52783;50.502;8.190;2024-03-22T09:14:50;14.27;;;7.95;;
66012;SDS011;52783;50.502;8.190;2024-03-22T09:17:15;14.32;;;7.63;;
66012;SDS011;52783;50.502;8.190;2024-03-22T09:19:41;13.65;;;7.70;;
66012;SDS011;52783;50.502;8.190;2024-03-22T09:22:06;13.43;;;7.32;;
66012;SDS011;52783;50.502;8.190;2024-03-22T09:24:32;16.90;;;7.45;;
66012;SDS011;52783;50.502;8.190;2024-03-22T09:26:57;15.98;;;7.47;;
66012;SDS011;52783;50.502;8.190;2024-03-22T09:29:24;10.52;;;6.43;;
66012;SDS011;52783;50.502;8.190;2024-03-22T09:31:49;12.93;;;6.75;;
66012;SDS011;52783;50.502;8.190;2024-03-22T09:34:15;11.55;;;7.60;;
66012;SDS011;52783;50.502;8.190;2024-03-22T09:36:41;11.98;;;6.90;;
66012;SDS011;52783;50.502;8.190;2024-03-22T09:39:07;12.77;;;6.50;;
66012;SDS011;52783;50.502;8.190;2024-03-22T09:41:33;11.80;;;7.18;;
66012;SDS011;52783;50.502;8.190;2024-03-22T09:44:07;12.32;;;7.10;;
66012;SDS011;52783;50.502;8.190;2024-03-22T09:46:38;13.10;;;8.00;;
66012;SDS011;52783;50.502;8.190;2024-03-22T09:49:07;17.35;;;7.72;;
66012;SDS011;52783;50.502;8.190;2024-03-22T09:51:41;11.38;;;7.38;;
66012;SDS011;52783;50.502;8.190;2024-03-22T09:54:11;10.85;;;7.10;;
66012;SDS011;52783;50.502;8.190;2024-03-22T09:56:39;12.88;;;7.82;;
66012;SDS011;52783;50.502;8.190;2024-03-22T09:59:05;14.93;;;9.05;;
66012;SDS011;52783;50.502;8.190;2024-03-22T10:01:35;15.05;;;9.35;;
66012;SDS011;52783;50.502;8.190;2024-03-22T10:04:03;14.73;;;7.80;;
66012;SDS011;52783;50.502;8.190;2024-03-22T10:06:29;14.98;;;8.00;;
66012;SDS011;52783;50.502;8.190;2024-03-22T10:08:59;14.80;;;8.75;;
66012;SDS011;52783;50.502;8.190;2024-03-22T10:11:26;13.98;;;8.65;;
66012;SDS011;52783;50.502;8.190;2024-03-22T10:13:52;23.73;;;8.05;;
66012;SDS011;52783;50.502;8.190;2024-03-22T10:16:20;12.80;;;8.05;;
66012;SDS011;52783;50.502;8.190;2024-03-22T10:18:46;16.20;;;9.25;;
66012;SDS011;52783;50.502;8.190;2024-03-22T10:21:16;13.40;;;8.20;;
66012;SDS011;52783;50.502;8.190;2024-03-22T10:23:43;13.93;;;8.38;;
66012;SDS011;52783;50.502;8.190;2024-03-22T10:26:09;12.48;;;8.57;;
66012;SDS011;52783;50.502;8.190;2024-03-22T10:28:35;15.48;;;7.80;;
66012;SDS011;52783;50.502;8.190;2024-03-22T10:31:01;15.80;;;7.32;;
66012;SDS011;52783;50.502;8.190;2024-03-22T10:33:27;12.30;;;6.82;;
66012;SDS011;52783;50.502;8.190;2024-03-22T10:35:54;11.57;;;7.07;;
66012;SDS011;52783;50.502;8.190;2024-03-22T10:38:20;15.23;;;7.63;;
66012;SDS011;52783;50.502;8.190;2024-03-22T10:40:46;15.68;;;8.68;;
66012;SDS011;52783;50.502;8.190;2024-03-22T10:43:13;14.15;;;7.43;;
66012;SDS011;52783;50.502;8.190;2024-03-22T10:45:39;15.10;;;7.47;;
66012;SDS011;52783;50.502;8.190;2024-03-22T10:48:08;14.80;;;7.43;;
66012;SDS011;52783;50.502;8.190;2024-03-22T10:50:35;17.23;;;7.75;;
66012;SDS011;52783;50.502;8.190;2024-03-22T10:53:12;13.18;;;7.10;;
66012;SDS011;52783;50.502;8.190;2024-03-22T10:55:45;14.10;;;7.43;;
66012;SDS011;52783;50.502;8.190;2024-03-22T10:58:16;11.50;;;6.68;;
66012;SDS011;52783;50.502;8.190;2024-03-22T11:00:42;9.93;;;6.57;;
66012;SDS011;52783;50.502;8.190;2024-03-22T11:03:09;11.27;;;6.65;;
66012;SDS011;52783;50.502;8.190;2024-03-22T11:05:34;14.80;;;6.88;;
66012;SDS011;52783;50.502;8.190;2024-03-22T11:08:09;12.98;;;6.68;;
66012;SDS011;52783;50.502;8.190;2024-03-22T11:10:35;12.75;;;6.88;;
66012;SDS011;52783;50.502;8.190;2024-03-22T11:13:02;11.57;;;6.85;;
66012;SDS011;52783;50.502;8.190;2024-03-22T11:15:32;11.98;;;6.90;;
66012;SDS011;52783;50.502;8.190;2024-03-22T11:17:58;15.40;;;6.82;;
66012;SDS011;52783;50.502;8.190;2024-03-22T11:20:24;11.45;;;7.05;;
66012;SDS011;52783;50.502;8.190;2024-03-22T11:22:54;14.43;;;7.13;;
66012;SDS011;52783;50.502;8.190;2024-03-22T11:25:21;11.00;;;6.85;;
66012;SDS011;52783;50.502;8.190;2024-03-22T11:27:47;22.60;;;7.30;;
66012;SDS011;52783;50.502;8.190;2024-03-22T11:30:13;11.80;;;7.05;;
66012;SDS011;52783;50.502;8.190;2024-03-22T11:32:40;11.98;;;6.80;;
66012;SDS011;52783;50.502;8.190;2024-03-22T11:35:11;15.48;;;7.25;;
66012;SDS011;52783;50.502;8.190;2024-03-22T11:37:38;13.43;;;6.85;;
66012;SDS011;52783;50.502;8.190;2024-03-22T11:40:06;15.48;;;6.90;;
66012;SDS011;52783;50.502;8.190;2024-03-22T11:42:38;14.80;;;7.15;;
66012;SDS011;52783;50.502;8.190;2024-03-22T11:45:05;13.55;;;7.60;;
66012;SDS011;52783;50.502;8.190;2024-03-22T11:47:32;21.15;;;7.25;;
66012;SDS011;52783;50.502;8.190;2024-03-22T11:49:58;16.55;;;7.75;;
66012;SDS011;52783;50.502;8.190;2024-03-22T11:52:24;13.85;;;7.15;;
66012;SDS011;52783;50.502;8.190;2024-03-22T11:54:54;14.10;;;6.90;;
66012;SDS011;52783;50.502;8.190;2024-03-22T11:57:20;10.93;;;7.05;;
66012;SDS011;52783;50.502;8.190;2024-03-22T11:59:46;12.88;;;6.95;;
66012;SDS011;52783;50.502;8.190;2024-03-22T12:02:12;14.30;;;6.93;;
66012;SDS011;52783;50.502;8.190;2024-03-22T12:04:56;11.63;;;7.13;;
66012;SDS011;52783;50.502;8.190;2024-03-22T12:07:21;12.48;;;7.28;;
66012;SDS011;52783;50.502;8.190;2024-03-22T12:09:48;14.05;;;7.00;;
66012;SDS011;52783;50.502;8.190;2024-03-22T12:12:14;15.88;;;8.15;;
66012;SDS011;52783;50.502;8.190;2024-03-22T12:14:39;11.88;;;7.40;;
66012;SDS011;52783;50.502;8.190;2024-03-22T12:17:05;10.07;;;6.70;;
66012;SDS011;52783;50.502;8.190;2024-03-22T12:19:32;15.45;;;6.95;;
66012;SDS011;52783;50.502;8.190;2024-03-22T12:21:58;12.60;;;7.43;;
66012;SDS011;52783;50.502;8.190;2024-03-22T12:24:24;14.27;;;7.78;;
66012;SDS011;52783;50.502;8.190;2024-03-22T12:26:50;18.02;;;7.80;;
66012;SDS011;52783;50.502;8.190;2024-03-22T12:29:16;12.10;;;7.05;;
66012;SDS011;52783;50.502;8.190;2024-03-22T12:31:42;13.48;;;7.47;;
66012;SDS011;52783;50.502;8.190;2024-03-22T12:34:08;15.32;;;6.97;;
66012;SDS011;52783;50.502;8.190;2024-03-22T12:36:33;11.73;;;7.65;;
66012;SDS011;52783;50.502;8.190;2024-03-22T12:38:59;16.30;;;7.82;;
66012;SDS011;52783;50.502;8.190;2024-03-22T12:41:25;13.85;;;7.50;;
66012;SDS011;52783;50.502;8.190;2024-03-22T12:43:52;13.82;;;7.47;;
66012;SDS011;52783;50.502;8.190;2024-03-22T12:46:17;12.90;;;7.47;;
66012;SDS011;52783;50.502;8.190;2024-03-22T12:48:43;11.93;;;7.10;;
66012;SDS011;52783;50.502;8.190;2024-03-22T12:51:08;11.80;;;7.10;;
66012;SDS011;52783;50.502;8.190;2024-03-22T12:53:34;13.65;;;6.40;;
66012;SDS011;52783;50.502;8.190;2024-03-22T12:55:59;10.88;;;7.22;;
66012;SDS011;52783;50.502;8.190;2024-03-22T12:58:36;12.73;;;7.60;;
66012;SDS011;52783;50.502;8.190;2024-03-22T13:01:11;13.68;;;7.50;;
66012;SDS011;52783;50.502;8.190;2024-03-22T13:03:36;13.25;;;7.32;;
66012;SDS011;52783;50.502;8.190;2024-03-22T13:06:05;13.75;;;6.90;;
66012;SDS011;52783;50.502;8.190;2024-03-22T13:08:31;13.85;;;7.43;;
66012;SDS011;52783;50.502;8.190;2024-03-22T13:10:57;13.25;;;7.53;;
66012;SDS011;52783;50.502;8.190;2024-03-22T13:13:23;13.52;;;8.15;;
66012;SDS011;52783;50.502;8.190;2024-03-22T13:15:48;17.48;;;7.90;;
66012;SDS011;52783;50.502;8.190;2024-03-22T13:18:14;12.90;;;7.78;;
66012;SDS011;52783;50.502;8.190;2024-03-22T13:20:40;14.60;;;7.53;;
66012;SDS011;52783;50.502;8.190;2024-03-22T13:23:06;18.33;;;7.88;;
66012;SDS011;52783;50.502;8.190;2024-03-22T13:25:34;12.82;;;7.53;;
66012;SDS011;52783;50.502;8.190;2024-03-22T13:28:00;13.77;;;7.78;;
66012;SDS011;52783;50.502;8.190;2024-03-22T13:30:27;12.25;;;7.63;;
66012;SDS011;52783;50.502;8.190;2024-03-22T13:32:53;13.88;;;7.93;;
66012;SDS011;52783;50.502;8.190;2024-03-22T13:35:18;14.25;;;7.45;;
66012;SDS011;52783;50.502;8.190;2024-03-22T13:37:44;15.70;;;7.80;;
66012;SDS011;52783;50.502;8.190;2024-03-22T13:40:09;15.07;;;7.95;;
66012;SDS011;52783;50.502;8.190;2024-03-22T13:42:36;19.17;;;8.00;;
66012;SDS011;52783;50.502;8.190;2024-03-22T13:45:01;16.38;;;8.10;;
66012;SDS011;52783;50.502;8.190;2024-03-22T13:47:27;19.67;;;8.15;;
66012;SDS011;52783;50.502;8.190;2024-03-22T13:49:55;15.55;;;8.18;;
66012;SDS011;52783;50.502;8.190;2024-03-22T13:52:21;13.73;;;7.90;;
66012;SDS011;52783;50.502;8.190;2024-03-22T13:54:47;14.70;;;8.13;;
66012;SDS011;52783;50.502;8.190;2024-03-22T13:57:12;15.02;;;8.40;;
66012;SDS011;52783;50.502;8.190;2024-03-22T13:59:38;14.55;;;8.30;;
66012;SDS011;52783;50.502;8.190;2024-03-22T14:02:05;17.90;;;8.40;;
66012;SDS011;52783;50.502;8.190;2024-03-22T14:04:32;19.08;;;7.90;;
66012;SDS011;52783;50.502;8.190;2024-03-22T14:06:58;10.93;;;7.78;;
66012;SDS011;52783;50.502;8.190;2024-03-22T14:09:23;14.23;;;7.82;;
66012;SDS011;52783;50.502;8.190;2024-03-22T14:11:49;14.68;;;7.20;;
66012;SDS011;52783;50.502;8.190;2024-03-22T14:14:14;15.10;;;7.63;;
66012;SDS011;52783;50.502;8.190;2024-03-22T14:16:40;14.35;;;6.80;;
66012;SDS011;52783;50.502;8.190;2024-03-22T14:19:09;13.00;;;6.85;;
66012;SDS011;52783;50.502;8.190;2024-03-22T14:21:35;14.00;;;6.97;;